sensor_id;sensor_type;location;lat;lon;timestamp;P1;durP1;ratioP1;P2;durP2;ratioP2
73919;SDS011;62266;53.348;-1.496;2024-03-08T00:01:49;24.80;;;10.50;;
73919;SDS011;62266;53.348;-1.496;2024-03-08T00:04:32;25.75;;;11.30;;
73919;SDS011;62266;53.348;-1.496;2024-03-08T00:07:17;23.48;;;11.07;;
73919;SDS011;62266;53.348;-1.496;2024-03-08T00:10:02;26.97;;;14.10;;
73919;SDS011;62266;53.348;-1.496;2024-03-08T00:12:47;33.25;;;14.90;;
73919;SDS011;62266;53.348;-1.496;2024-03-08T00:15:31;35.13;;;15.63;;
73919;SDS011;62266;53.348;-1.496;2024-03-08T00:18:16;26.90;;;13.50;;
73919;SDS011;62266;53.348;-1.496;2024-03-08T00:21:00;34.30;;;16.05;;
73919;SDS011;62266;53.348;-1.496;2024-03-08T00:23:44;28.97;;;15.20;;
73919;SDS011;62266;53.348;-1.496;2024-03-08T00:26:28;32.83;;;15.45;;
73919;SDS011;62266;53.348;-1.496;2024-03-08T00:29:13;28.42;;;12.23;;
73919;SDS011;62266;53.348;-1.496;2024-03-08T00:31:57;26.25;;;12.52;;
73919;SDS011;62266;53.348;-1.496;2024-03-08T00:34:41;24.90;;;12.20;;
73919;SDS011;62266;53.348;-1.496;2024-03-08T00:37:25;25.13;;;12.87;;
73919;SDS011;62266;53.348;-1.496;2024-03-08T00:40:09;27.40;;;11.80;;
73919;SDS011;62266;53.348;-1.496;2024-03-08T00:42:54;27.98;;;12.52;;
73919;SDS011;62266;53.348;-1.496;2024-03-08T00:45:38;30.17;;;13.10;;
73919;SDS011;62266;53.348;-1.496;2024-03-08T00:48:22;32.67;;;13.82;;
73919;SDS011;62266;53.348;-1.496;2024-03-08T00:51:06;27.23;;;11.93;;
73919;SDS011;62266;53.348;-1.496;2024-03-08T00:53:50;29.60;;;12.60;;
73919;SDS011;62266;53.348;-1.496;2024-03-08T00:56:34;27.45;;;12.80;;
73919;SDS011;62266;53.348;-1.496;2024-03-08T00:59:19;27.48;;;12.43;;
73919;SDS011;62266;53.348;-1.496;2024-03-08T01:02:03;28.90;;;13.40;;
73919;SDS011;62266;53.348;-1.496;2024-03-08T01:04:47;30.97;;;13.50;;
73919;SDS011;62266;53.348;-1.496;2024-03-08T01:07:31;30.08;;;13.00;;
73919;SDS011;62266;53.348;-1.496;2024-03-08T01:10:15;30.40;;;13.77;;
73919;SDS011;62266;53.348;-1.496;2024-03-08T01:12:59;31.13;;;14.20;;
73919;SDS011;62266;53.348;-1.496;2024-03-08T01:15:43;28.58;;;13.05;;
73919;SDS011;62266;53.348;-1.496;2024-03-08T01:18:27;30.90;;;13.60;;
73919;SDS011;62266;53.348;-1.496;2024-03-08T01:21:11;27.33;;;12.77;;
73919;SDS011;62266;53.348;-1.496;2024-03-08T01:23:54;27.55;;;13.02;;
73919;SDS011;62266;53.348;-1.496;2024-03-08T01:26:38;30.10;;;13.73;;
73919;SDS011;62266;53.348;-1.496;2024-03-08T01:29:23;30.42;;;14.40;;
73919;SDS011;62266;53.348;-1.496;2024-03-08T01:32:07;31.63;;;14.53;;
73919;SDS011;62266;53.348;-1.496;2024-03-08T01:34:51;34.50;;;14.48;;
73919;SDS011;62266;53.348;-1.496;2024-03-08T01:37:35;32.67;;;15.23;;
73919;SDS011;62266;53.348;-1.496;2024-03-08T01:40:20;30.60;;;13.85;;
73919;SDS011;62266;53.348;-1.496;2024-03-08T01:46:12;29.30;;;14.67;;
73919;SDS011;62266;53.348;-1.496;2024-03-08T01:48:59;33.35;;;15.85;;
73919;SDS011;62266;53.348;-1.496;2024-03-08T01:51:44;36.58;;;15.18;;
73919;SDS011;62266;53.348;-1.496;2024-03-08T01:54:29;40.72;;;16.40;;
73919;SDS011;62266;53.348;-1.496;2024-03-08T01:57:13;36.55;;;16.02;;
73919;SDS011;62266;53.348;-1.496;2024-03-08T01:59:59;37.73;;;16.53;;
73919;SDS011;62266;53.348;-1.496;2024-03-08T02:02:49;39.42;;;17.48;;
73919;SDS011;62266;53.348;-1.496;2024-03-08T02:05:35;34.30;;;15.07;;
73919;SDS011;62266;53.348;-1.496;2024-03-08T02:08:19;38.10;;;15.20;;
73919;SDS011;62266;53.348;-1.496;2024-03-08T02:11:06;34.47;;;16.05;;
73919;SDS011;62266;53.348;-1.496;2024-03-08T02:13:51;33.87;;;15.30;;
73919;SDS011;62266;53.348;-1.496;2024-03-08T02:16:35;32.20;;;15.52;;
73919;SDS011;62266;53.348;-1.496;2024-03-08T02:19:19;35.90;;;15.75;;
73919;SDS011;62266;53.348;-1.496;2024-03-08T02:22:03;38.10;;;16.02;;
73919;SDS011;62266;53.348;-1.496;2024-03-08T02:24:48;36.20;;;15.70;;
73919;SDS011;62266;53.348;-1.496;2024-03-08T02:27:33;36.30;;;15.77;;
73919;SDS011;62266;53.348;-1.496;2024-03-08T02:30:17;32.92;;;15.02;;
73919;SDS011;62266;53.348;-1.496;2024-03-08T02:33:01;33.83;;;16.17;;
73919;SDS011;62266;53.348;-1.496;2024-03-08T02:35:45;36.55;;;16.58;;
73919;SDS011;62266;53.348;-1.496;2024-03-08T02:38:32;39.13;;;15.07;;
73919;SDS011;62266;53.348;-1.496;2024-03-08T02:41:16;35.90;;;15.73;;
73919;SDS011;62266;53.348;-1.496;2024-03-08T02:44:01;38.38;;;15.68;;
73919;SDS011;62266;53.348;-1.496;2024-03-08T02:46:45;35.88;;;15.52;;
73919;SDS011;62266;53.348;-1.496;2024-03-08T02:49:29;33.75;;;15.52;;
73919;SDS011;62266;53.348;-1.496;2024-03-08T02:52:13;38.35;;;15.52;;
73919;SDS011;62266;53.348;-1.496;2024-03-08T02:54:57;35.27;;;14.47;;
73919;SDS011;62266;53.348;-1.496;2024-03-08T02:57:41;34.13;;;14.57;;
73919;SDS011;62266;53.348;-1.496;2024-03-08T03:00:27;35.55;;;14.88;;
73919;SDS011;62266;53.348;-1.496;2024-03-08T03:03:11;34.10;;;14.27;;
73919;SDS011;62266;53.348;-1.496;2024-03-08T03:05:54;33.10;;;15.23;;
73919;SDS011;62266;53.348;-1.496;2024-03-08T03:08:39;36.93;;;15.73;;
73919;SDS011;62266;53.348;-1.496;2024-03-08T03:11:26;39.50;;;16.58;;
73919;SDS011;62266;53.348;-1.496;2024-03-08T03:14:10;30.08;;;15.48;;
73919;SDS011;62266;53.348;-1.496;2024-03-08T03:16:57;35.35;;;16.17;;
73919;SDS011;62266;53.348;-1.496;2024-03-08T03:19:41;34.83;;;15.77;;
73919;SDS011;62266;53.348;-1.496;2024-03-08T03:22:26;36.10;;;15.90;;
73919;SDS011;62266;53.348;-1.496;2024-03-08T03:25:10;34.30;;;15.45;;
73919;SDS011;62266;53.348;-1.496;2024-03-08T03:27:54;36.72;;;15.45;;
73919;SDS011;62266;53.348;-1.496;2024-03-08T03:30:41;32.38;;;14.07;;
73919;SDS011;62266;53.348;-1.496;2024-03-08T03:33:25;37.05;;;15.20;;
73919;SDS011;62266;53.348;-1.496;2024-03-08T03:36:10;30.23;;;14.87;;
73919;SDS011;62266;53.348;-1.496;2024-03-08T03:38:53;35.88;;;15.52;;
73919;SDS011;62266;53.348;-1.496;2024-03-08T03:41:48;37.42;;;15.45;;
73919;SDS011;62266;53.348;-1.496;2024-03-08T03:44:35;40.55;;;16.45;;
73919;SDS011;62266;53.348;-1.496;2024-03-08T03:47:19;38.70;;;15.88;;
73919;SDS011;62266;53.348;-1.496;2024-03-08T03:50:04;37.07;;;15.43;;
73919;SDS011;62266;53.348;-1.496;2024-03-08T03:52:49;37.15;;;16.55;;
73919;SDS011;62266;53.348;-1.496;2024-03-08T03:55:34;36.28;;;15.80;;
73919;SDS011;62266;53.348;-1.496;2024-03-08T03:58:18;42.13;;;16.30;;
73919;SDS011;62266;53.348;-1.496;2024-03-08T04:01:06;35.63;;;16.30;;
73919;SDS011;62266;53.348;-1.496;2024-03-08T04:03:50;33.60;;;14.83;;
73919;SDS011;62266;53.348;-1.496;2024-03-08T04:06:34;42.88;;;17.38;;
73919;SDS011;62266;53.348;-1.496;2024-03-08T04:09:17;38.47;;;17.27;;
73919;SDS011;62266;53.348;-1.496;2024-03-08T04:12:06;39.10;;;16.30;;
73919;SDS011;62266;53.348;-1.496;2024-03-08T04:14:51;40.35;;;16.38;;
73919;SDS011;62266;53.348;-1.496;2024-03-08T04:17:35;40.37;;;17.13;;
73919;SDS011;62266;53.348;-1.496;2024-03-08T04:20:20;41.97;;;16.70;;
73919;SDS011;62266;53.348;-1.496;2024-03-08T04:23:05;41.83;;;17.85;;
73919;SDS011;62266;53.348;-1.496;2024-03-08T04:25:49;41.60;;;17.40;;
73919;SDS011;62266;53.348;-1.496;2024-03-08T04:28:33;41.45;;;17.55;;
73919;SDS011;62266;53.348;-1.496;2024-03-08T04:31:17;41.83;;;17.47;;
73919;SDS011;62266;53.348;-1.496;2024-03-08T04:34:00;34.28;;;15.95;;
73919;SDS011;62266;53.348;-1.496;2024-03-08T04:36:45;38.15;;;16.90;;
73919;SDS011;62266;53.348;-1.496;2024-03-08T04:39:29;45.63;;;18.10;;
73919;SDS011;62266;53.348;-1.496;2024-03-08T04:42:14;40.95;;;17.60;;
73919;SDS011;62266;53.348;-1.496;2024-03-08T04:44:59;43.47;;;16.97;;
73919;SDS011;62266;53.348;-1.496;2024-03-08T04:47:43;42.90;;;19.10;;
73919;SDS011;62266;53.348;-1.496;2024-03-08T04:50:27;45.63;;;17.25;;
73919;SDS011;62266;53.348;-1.496;2024-03-08T04:53:14;40.67;;;17.13;;
73919;SDS011;62266;53.348;-1.496;2024-03-08T04:55:58;43.13;;;18.25;;
73919;SDS011;62266;53.348;-1.496;2024-03-08T04:58:43;36.93;;;16.93;;
73919;SDS011;62266;53.348;-1.496;2024-03-08T05:01:27;41.47;;;18.17;;
73919;SDS011;62266;53.348;-1.496;2024-03-08T05:04:11;43.65;;;17.48;;
73919;SDS011;62266;53.348;-1.496;2024-03-08T05:06:55;46.17;;;18.70;;
73919;SDS011;62266;53.348;-1.496;2024-03-08T05:09:39;40.92;;;17.98;;
73919;SDS011;62266;53.348;-1.496;2024-03-08T05:12:24;43.63;;;17.90;;
73919;SDS011;62266;53.348;-1.496;2024-03-08T05:15:08;44.90;;;18.77;;
73919;SDS011;62266;53.348;-1.496;2024-03-08T05:17:53;48.15;;;20.10;;
73919;SDS011;62266;53.348;-1.496;2024-03-08T05:20:37;49.22;;;18.90;;
73919;SDS011;62266;53.348;-1.496;2024-03-08T05:23:21;41.75;;;17.98;;
73919;SDS011;62266;53.348;-1.496;2024-03-08T05:26:06;39.13;;;18.80;;
73919;SDS011;62266;53.348;-1.496;2024-03-08T05:28:50;43.63;;;18.48;;
73919;SDS011;62266;53.348;-1.496;2024-03-08T05:31:47;43.38;;;19.55;;
73919;SDS011;62266;53.348;-1.496;2024-03-08T05:34:33;38.83;;;16.83;;
73919;SDS011;62266;53.348;-1.496;2024-03-08T05:37:17;46.90;;;18.63;;
73919;SDS011;62266;53.348;-1.496;2024-03-08T05:40:01;47.70;;;19.20;;
73919;SDS011;62266;53.348;-1.496;2024-03-08T05:42:47;47.40;;;19.00;;
73919;SDS011;62266;53.348;-1.496;2024-03-08T05:45:31;43.10;;;19.10;;
73919;SDS011;62266;53.348;-1.496;2024-03-08T05:48:16;43.30;;;18.02;;
73919;SDS011;62266;53.348;-1.496;2024-03-08T05:51:01;43.63;;;19.40;;
73919;SDS011;62266;53.348;-1.496;2024-03-08T05:53:46;46.83;;;18.40;;
73919;SDS011;62266;53.348;-1.496;2024-03-08T05:56:30;47.70;;;18.08;;
73919;SDS011;62266;53.348;-1.496;2024-03-08T05:59:13;44.97;;;19.85;;
73919;SDS011;62266;53.348;-1.496;2024-03-08T06:01:58;42.00;;;19.60;;
73919;SDS011;62266;53.348;-1.496;2024-03-08T06:04:42;46.08;;;19.95;;
73919;SDS011;62266;53.348;-1.496;2024-03-08T06:07:26;40.37;;;18.50;;
73919;SDS011;62266;53.348;-1.496;2024-03-08T06:10:10;49.42;;;19.25;;
73919;SDS011;62266;53.348;-1.496;2024-03-08T06:12:56;44.63;;;18.88;;
73919;SDS011;62266;53.348;-1.496;2024-03-08T06:15:40;46.60;;;18.42;;
73919;SDS011;62266;53.348;-1.496;2024-03-08T06:18:24;45.00;;;19.27;;
73919;SDS011;62266;53.348;-1.496;2024-03-08T06:21:08;47.90;;;20.07;;
73919;SDS011;62266;53.348;-1.496;2024-03-08T06:23:55;47.42;;;20.33;;
73919;SDS011;62266;53.348;-1.496;2024-03-08T06:26:41;46.15;;;19.58;;
73919;SDS011;62266;53.348;-1.496;2024-03-08T06:29:25;49.15;;;20.17;;
73919;SDS011;62266;53.348;-1.496;2024-03-08T06:32:10;46.88;;;19.58;;
73919;SDS011;62266;53.348;-1.496;2024-03-08T06:34:54;43.80;;;19.70;;
73919;SDS011;62266;53.348;-1.496;2024-03-08T06:37:38;47.25;;;20.05;;
73919;SDS011;62266;53.348;-1.496;2024-03-08T06:40:23;50.13;;;20.67;;
73919;SDS011;62266;53.348;-1.496;2024-03-08T06:43:07;47.67;;;20.23;;
73919;SDS011;62266;53.348;-1.496;2024-03-08T06:45:52;47.03;;;20.85;;
73919;SDS011;62266;53.348;-1.496;2024-03-08T06:48:36;51.70;;;20.63;;
73919;SDS011;62266;53.348;-1.496;2024-03-08T06:51:21;47.22;;;20.13;;
73919;SDS011;62266;53.348;-1.496;2024-03-08T06:54:06;47.70;;;20.38;;
73919;SDS011;62266;53.348;-1.496;2024-03-08T06:56:52;48.72;;;19.70;;
73919;SDS011;62266;53.348;-1.496;2024-03-08T06:59:36;44.42;;;20.05;;
73919;SDS011;62266;53.348;-1.496;2024-03-08T07:02:21;45.47;;;19.57;;
73919;SDS011;62266;53.348;-1.496;2024-03-08T07:05:08;48.28;;;20.98;;
73919;SDS011;62266;53.348;-1.496;2024-03-08T07:07:54;45.80;;;19.80;;
73919;SDS011;62266;53.348;-1.496;2024-03-08T07:10:38;47.00;;;20.35;;
73919;SDS011;62266;53.348;-1.496;2024-03-08T07:13:25;50.83;;;20.88;;
73919;SDS011;62266;53.348;-1.496;2024-03-08T07:16:10;48.40;;;20.60;;
73919;SDS011;62266;53.348;-1.496;2024-03-08T07:18:55;49.05;;;22.00;;
73919;SDS011;62266;53.348;-1.496;2024-03-08T07:21:45;53.25;;;21.92;;
73919;SDS011;62266;53.348;-1.496;2024-03-08T07:24:31;48.92;;;20.38;;
73919;SDS011;62266;53.348;-1.496;2024-03-08T07:27:21;50.28;;;21.00;;
73919;SDS011;62266;53.348;-1.496;2024-03-08T07:30:08;45.23;;;20.43;;
73919;SDS011;62266;53.348;-1.496;2024-03-08T07:32:53;48.97;;;19.90;;
73919;SDS011;62266;53.348;-1.496;2024-03-08T07:35:41;50.85;;;22.05;;
73919;SDS011;62266;53.348;-1.496;2024-03-08T07:38:25;46.53;;;21.27;;
73919;SDS011;62266;53.348;-1.496;2024-03-08T07:41:10;46.95;;;20.77;;
73919;SDS011;62266;53.348;-1.496;2024-03-08T07:43:53;51.83;;;21.60;;
73919;SDS011;62266;53.348;-1.496;2024-03-08T07:46:37;54.38;;;21.55;;
73919;SDS011;62266;53.348;-1.496;2024-03-08T07:49:22;49.92;;;21.42;;
73919;SDS011;62266;53.348;-1.496;2024-03-08T07:52:06;53.08;;;22.58;;
73919;SDS011;62266;53.348;-1.496;2024-03-08T07:54:51;51.55;;;21.45;;
73919;SDS011;62266;53.348;-1.496;2024-03-08T07:57:35;55.77;;;22.43;;
73919;SDS011;62266;53.348;-1.496;2024-03-08T08:00:21;49.13;;;20.60;;
73919;SDS011;62266;53.348;-1.496;2024-03-08T08:03:06;45.78;;;20.13;;
73919;SDS011;62266;53.348;-1.496;2024-03-08T08:05:52;50.20;;;21.05;;
73919;SDS011;62266;53.348;-1.496;2024-03-08T08:08:37;47.60;;;20.35;;
73919;SDS011;62266;53.348;-1.496;2024-03-08T08:11:21;45.37;;;19.43;;
73919;SDS011;62266;53.348;-1.496;2024-03-08T08:14:06;48.05;;;19.70;;
73919;SDS011;62266;53.348;-1.496;2024-03-08T08:16:53;47.55;;;19.83;;
73919;SDS011;62266;53.348;-1.496;2024-03-08T08:19:42;46.67;;;20.17;;
73919;SDS011;62266;53.348;-1.496;2024-03-08T08:22:26;44.90;;;20.40;;
73919;SDS011;62266;53.348;-1.496;2024-03-08T08:25:11;46.70;;;21.30;;
73919;SDS011;62266;53.348;-1.496;2024-03-08T08:28:04;44.53;;;18.90;;
73919;SDS011;62266;53.348;-1.496;2024-03-08T08:30:48;44.55;;;18.95;;
73919;SDS011;62266;53.348;-1.496;2024-03-08T08:33:32;47.15;;;19.23;;
73919;SDS011;62266;53.348;-1.496;2024-03-08T08:36:18;48.88;;;19.48;;
73919;SDS011;62266;53.348;-1.496;2024-03-08T08:39:02;43.83;;;19.63;;
73919;SDS011;62266;53.348;-1.496;2024-03-08T08:41:47;41.45;;;19.65;;
73919;SDS011;62266;53.348;-1.496;2024-03-08T08:44:30;40.70;;;18.27;;
73919;SDS011;62266;53.348;-1.496;2024-03-08T08:47:18;40.42;;;18.85;;
73919;SDS011;62266;53.348;-1.496;2024-03-08T08:50:02;40.40;;;18.20;;
73919;SDS011;62266;53.348;-1.496;2024-03-08T08:55:46;39.85;;;18.70;;
73919;SDS011;62266;53.348;-1.496;2024-03-08T08:58:29;42.42;;;19.98;;
73919;SDS011;62266;53.348;-1.496;2024-03-08T09:01:13;41.05;;;18.88;;
73919;SDS011;62266;53.348;-1.496;2024-03-08T09:03:58;40.90;;;19.30;;
73919;SDS011;62266;53.348;-1.496;2024-03-08T09:06:42;46.50;;;19.43;;
73919;SDS011;62266;53.348;-1.496;2024-03-08T09:09:26;46.15;;;19.20;;
73919;SDS011;62266;53.348;-1.496;2024-03-08T09:12:10;38.35;;;17.77;;
73919;SDS011;62266;53.348;-1.496;2024-03-08T09:14:58;39.85;;;17.00;;
73919;SDS011;62266;53.348;-1.496;2024-03-08T09:17:43;37.97;;;17.55;;
73919;SDS011;62266;53.348;-1.496;2024-03-08T09:20:28;39.10;;;17.30;;
73919;SDS011;62266;53.348;-1.496;2024-03-08T09:23:13;34.55;;;16.35;;
73919;SDS011;62266;53.348;-1.496;2024-03-08T09:25:58;32.42;;;17.40;;
73919;SDS011;62266;53.348;-1.496;2024-03-08T09:28:43;36.88;;;16.63;;
73919;SDS011;62266;53.348;-1.496;2024-03-08T09:31:27;37.15;;;16.02;;
73919;SDS011;62266;53.348;-1.496;2024-03-08T09:34:12;36.37;;;16.47;;
73919;SDS011;62266;53.348;-1.496;2024-03-08T09:36:57;34.75;;;16.20;;
73919;SDS011;62266;53.348;-1.496;2024-03-08T09:39:41;36.95;;;17.20;;
73919;SDS011;62266;53.348;-1.496;2024-03-08T09:42:25;33.80;;;16.35;;
73919;SDS011;62266;53.348;-1.496;2024-03-08T09:45:10;40.72;;;16.70;;
73919;SDS011;62266;53.348;-1.496;2024-03-08T09:47:55;36.43;;;16.50;;
73919;SDS011;62266;53.348;-1.496;2024-03-08T09:50:40;34.13;;;15.98;;
73919;SDS011;62266;53.348;-1.496;2024-03-08T09:53:25;33.50;;;16.40;;
73919;SDS011;62266;53.348;-1.496;2024-03-08T09:56:10;33.35;;;15.75;;
73919;SDS011;62266;53.348;-1.496;2024-03-08T09:58:56;37.63;;;16.15;;
73919;SDS011;62266;53.348;-1.496;2024-03-08T10:02:03;39.67;;;16.30;;
73919;SDS011;62266;53.348;-1.496;2024-03-08T10:04:48;31.30;;;15.32;;
73919;SDS011;62266;53.348;-1.496;2024-03-08T10:07:32;30.13;;;14.23;;
73919;SDS011;62266;53.348;-1.496;2024-03-08T10:10:17;35.60;;;16.08;;
73919;SDS011;62266;53.348;-1.496;2024-03-08T10:13:06;34.75;;;16.10;;
73919;SDS011;62266;53.348;-1.496;2024-03-08T10:15:51;31.60;;;15.20;;
73919;SDS011;62266;53.348;-1.496;2024-03-08T10:18:37;34.10;;;16.83;;
73919;SDS011;62266;53.348;-1.496;2024-03-08T10:21:22;36.22;;;16.75;;
73919;SDS011;62266;53.348;-1.496;2024-03-08T10:24:07;35.25;;;16.23;;
73919;SDS011;62266;53.348;-1.496;2024-03-08T10:27:01;35.10;;;16.30;;
73919;SDS011;62266;53.348;-1.496;2024-03-08T10:29:48;34.07;;;15.77;;
73919;SDS011;62266;53.348;-1.496;2024-03-08T10:32:32;30.80;;;15.20;;
73919;SDS011;62266;53.348;-1.496;2024-03-08T10:35:16;35.47;;;16.38;;
73919;SDS011;62266;53.348;-1.496;2024-03-08T10:38:01;30.75;;;14.95;;
73919;SDS011;62266;53.348;-1.496;2024-03-08T10:40:51;32.83;;;15.45;;
73919;SDS011;62266;53.348;-1.496;2024-03-08T10:49:25;31.92;;;15.23;;
73919;SDS011;62266;53.348;-1.496;2024-03-08T10:52:15;33.45;;;15.38;;
73919;SDS011;62266;53.348;-1.496;2024-03-08T10:55:01;36.20;;;15.98;;
73919;SDS011;62266;53.348;-1.496;2024-03-08T10:57:47;33.27;;;15.30;;
73919;SDS011;62266;53.348;-1.496;2024-03-08T11:00:32;31.15;;;14.95;;
73919;SDS011;62266;53.348;-1.496;2024-03-08T11:09:58;33.08;;;15.73;;
73919;SDS011;62266;53.348;-1.496;2024-03-08T11:12:27;34.40;;;16.70;;
73919;SDS011;62266;53.348;-1.496;2024-03-08T11:15:16;30.83;;;15.13;;
73919;SDS011;62266;53.348;-1.496;2024-03-08T11:18:03;31.45;;;14.30;;
73919;SDS011;62266;53.348;-1.496;2024-03-08T11:20:54;26.80;;;14.90;;
73919;SDS011;62266;53.348;-1.496;2024-03-08T11:23:39;34.03;;;15.25;;
73919;SDS011;62266;53.348;-1.496;2024-03-08T11:26:27;32.30;;;15.37;;
73919;SDS011;62266;53.348;-1.496;2024-03-08T11:32:20;30.13;;;14.40;;
73919;SDS011;62266;53.348;-1.496;2024-03-08T11:35:06;34.75;;;15.77;;
73919;SDS011;62266;53.348;-1.496;2024-03-08T11:38:02;31.77;;;15.40;;
73919;SDS011;62266;53.348;-1.496;2024-03-08T11:40:46;31.97;;;15.70;;
73919;SDS011;62266;53.348;-1.496;2024-03-08T11:43:34;30.95;;;14.93;;
73919;SDS011;62266;53.348;-1.496;2024-03-08T11:46:19;31.67;;;17.52;;
73919;SDS011;62266;53.348;-1.496;2024-03-08T11:49:03;30.95;;;15.18;;
73919;SDS011;62266;53.348;-1.496;2024-03-08T11:51:49;31.95;;;16.33;;
73919;SDS011;62266;53.348;-1.496;2024-03-08T11:54:36;39.13;;;17.10;;
73919;SDS011;62266;53.348;-1.496;2024-03-08T11:57:23;29.40;;;15.38;;
73919;SDS011;62266;53.348;-1.496;2024-03-08T12:00:14;30.83;;;16.40;;
73919;SDS011;62266;53.348;-1.496;2024-03-08T12:03:05;33.85;;;15.48;;
73919;SDS011;62266;53.348;-1.496;2024-03-08T12:05:56;31.88;;;15.63;;
73919;SDS011;62266;53.348;-1.496;2024-03-08T12:08:42;32.67;;;15.90;;
73919;SDS011;62266;53.348;-1.496;2024-03-08T12:11:26;33.38;;;14.55;;
73919;SDS011;62266;53.348;-1.496;2024-03-08T12:14:10;27.77;;;15.40;;
73919;SDS011;62266;53.348;-1.496;2024-03-08T12:16:54;27.27;;;14.35;;
73919;SDS011;62266;53.348;-1.496;2024-03-08T12:19:38;28.15;;;14.35;;
73919;SDS011;62266;53.348;-1.496;2024-03-08T12:22:25;29.70;;;15.13;;
73919;SDS011;62266;53.348;-1.496;2024-03-08T12:25:11;31.33;;;14.75;;
73919;SDS011;62266;53.348;-1.496;2024-03-08T12:27:55;26.20;;;14.23;;
73919;SDS011;62266;53.348;-1.496;2024-03-08T12:34:00;26.83;;;13.98;;
73919;SDS011;62266;53.348;-1.496;2024-03-08T12:36:45;28.10;;;14.93;;
73919;SDS011;62266;53.348;-1.496;2024-03-08T12:39:33;28.15;;;13.88;;
73919;SDS011;62266;53.348;-1.496;2024-03-08T12:42:18;28.30;;;14.35;;
73919;SDS011;62266;53.348;-1.496;2024-03-08T12:45:03;25.90;;;14.05;;
73919;SDS011;62266;53.348;-1.496;2024-03-08T12:47:52;27.30;;;14.70;;
73919;SDS011;62266;53.348;-1.496;2024-03-08T12:50:37;26.00;;;14.67;;
73919;SDS011;62266;53.348;-1.496;2024-03-08T12:53:21;27.48;;;14.93;;
73919;SDS011;62266;53.348;-1.496;2024-03-08T12:56:06;29.05;;;14.57;;
73919;SDS011;62266;53.348;-1.496;2024-03-08T12:58:52;29.42;;;14.15;;
73919;SDS011;62266;53.348;-1.496;2024-03-08T13:01:37;26.55;;;14.93;;
73919;SDS011;62266;53.348;-1.496;2024-03-08T13:04:21;26.77;;;13.67;;
73919;SDS011;62266;53.348;-1.496;2024-03-08T13:07:05;26.10;;;13.77;;
73919;SDS011;62266;53.348;-1.496;2024-03-08T13:09:49;28.02;;;15.10;;
73919;SDS011;62266;53.348;-1.496;2024-03-08T13:12:33;28.83;;;15.20;;
73919;SDS011;62266;53.348;-1.496;2024-03-08T13:15:21;27.50;;;14.10;;
73919;SDS011;62266;53.348;-1.496;2024-03-08T13:18:06;25.23;;;14.13;;
73919;SDS011;62266;53.348;-1.496;2024-03-08T13:20:53;27.10;;;15.00;;
73919;SDS011;62266;53.348;-1.496;2024-03-08T13:23:38;29.55;;;15.27;;
73919;SDS011;62266;53.348;-1.496;2024-03-08T13:26:26;30.17;;;15.93;;
73919;SDS011;62266;53.348;-1.496;2024-03-08T13:29:16;26.55;;;14.55;;
73919;SDS011;62266;53.348;-1.496;2024-03-08T13:32:01;33.13;;;15.90;;
73919;SDS011;62266;53.348;-1.496;2024-03-08T13:34:47;26.83;;;14.63;;
73919;SDS011;62266;53.348;-1.496;2024-03-08T13:37:31;27.40;;;14.98;;
73919;SDS011;62266;53.348;-1.496;2024-03-08T13:40:17;26.55;;;14.20;;
73919;SDS011;62266;53.348;-1.496;2024-03-08T13:43:04;28.80;;;15.57;;
73919;SDS011;62266;53.348;-1.496;2024-03-08T13:45:48;27.50;;;14.90;;
73919;SDS011;62266;53.348;-1.496;2024-03-08T13:48:33;31.42;;;14.80;;
73919;SDS011;62266;53.348;-1.496;2024-03-08T13:51:17;27.02;;;14.75;;
73919;SDS011;62266;53.348;-1.496;2024-03-08T13:54:02;28.05;;;15.00;;
73919;SDS011;62266;53.348;-1.496;2024-03-08T13:56:46;29.25;;;16.60;;
73919;SDS011;62266;53.348;-1.496;2024-03-08T13:59:33;31.60;;;16.10;;
73919;SDS011;62266;53.348;-1.496;2024-03-08T14:02:19;29.15;;;16.25;;
73919;SDS011;62266;53.348;-1.496;2024-03-08T14:05:03;32.60;;;16.70;;
73919;SDS011;62266;53.348;-1.496;2024-03-08T14:07:50;32.00;;;16.25;;
73919;SDS011;62266;53.348;-1.496;2024-03-08T14:10:34;29.05;;;16.38;;
73919;SDS011;62266;53.348;-1.496;2024-03-08T14:13:20;26.93;;;15.70;;
73919;SDS011;62266;53.348;-1.496;2024-03-08T14:16:05;31.23;;;15.65;;
73919;SDS011;62266;53.348;-1.496;2024-03-08T14:18:49;29.10;;;15.63;;
73919;SDS011;62266;53.348;-1.496;2024-03-08T14:21:33;31.25;;;16.65;;
73919;SDS011;62266;53.348;-1.496;2024-03-08T14:24:17;30.33;;;15.63;;
73919;SDS011;62266;53.348;-1.496;2024-03-08T14:27:02;29.47;;;15.90;;
73919;SDS011;62266;53.348;-1.496;2024-03-08T14:29:47;29.45;;;15.30;;
73919;SDS011;62266;53.348;-1.496;2024-03-08T14:32:31;31.35;;;16.10;;
73919;SDS011;62266;53.348;-1.496;2024-03-08T14:35:16;28.08;;;15.00;;
73919;SDS011;62266;53.348;-1.496;2024-03-08T14:38:00;28.95;;;14.93;;
73919;SDS011;62266;53.348;-1.496;2024-03-08T14:40:44;28.80;;;14.70;;
73919;SDS011;62266;53.348;-1.496;2024-03-08T14:43:31;29.58;;;15.80;;
73919;SDS011;62266;53.348;-1.496;2024-03-08T14:46:15;28.17;;;15.75;;
73919;SDS011;62266;53.348;-1.496;2024-03-08T14:49:04;27.95;;;14.27;;
73919;SDS011;62266;53.348;-1.496;2024-03-08T14:51:49;26.77;;;15.35;;
73919;SDS011;62266;53.348;-1.496;2024-03-08T14:54:33;33.83;;;15.87;;
73919;SDS011;62266;53.348;-1.496;2024-03-08T14:57:17;28.25;;;14.98;;
73919;SDS011;62266;53.348;-1.496;2024-03-08T15:00:01;29.35;;;15.23;;
73919;SDS011;62266;53.348;-1.496;2024-03-08T15:02:49;27.33;;;15.25;;
73919;SDS011;62266;53.348;-1.496;2024-03-08T15:05:37;30.17;;;15.70;;
73919;SDS011;62266;53.348;-1.496;2024-03-08T15:08:26;29.67;;;15.13;;
73919;SDS011;62266;53.348;-1.496;2024-03-08T15:11:11;28.70;;;14.48;;
73919;SDS011;62266;53.348;-1.496;2024-03-08T15:13:55;26.98;;;13.98;;
73919;SDS011;62266;53.348;-1.496;2024-03-08T15:16:41;26.15;;;13.57;;
73919;SDS011;62266;53.348;-1.496;2024-03-08T15:19:26;24.83;;;13.55;;
73919;SDS011;62266;53.348;-1.496;2024-03-08T15:22:11;26.23;;;13.60;;
73919;SDS011;62266;53.348;-1.496;2024-03-08T15:24:55;26.73;;;14.60;;
73919;SDS011;62266;53.348;-1.496;2024-03-08T15:27:42;27.95;;;14.60;;
73919;SDS011;62266;53.348;-1.496;2024-03-08T15:30:26;29.65;;;14.88;;
73919;SDS011;62266;53.348;-1.496;2024-03-08T15:33:13;28.88;;;14.07;;
73919;SDS011;62266;53.348;-1.496;2024-03-08T15:35:58;29.73;;;14.83;;
73919;SDS011;62266;53.348;-1.496;2024-03-08T15:38:47;28.17;;;14.85;;
73919;SDS011;62266;53.348;-1.496;2024-03-08T15:41:31;27.42;;;14.50;;
73919;SDS011;62266;53.348;-1.496;2024-03-08T15:44:15;29.00;;;15.02;;
73919;SDS011;62266;53.348;-1.496;2024-03-08T15:46:59;27.83;;;15.25;;
73919;SDS011;62266;53.348;-1.496;2024-03-08T15:49:44;30.77;;;15.63;;
73919;SDS011;62266;53.348;-1.496;2024-03-08T15:52:28;27.27;;;14.18;;
73919;SDS011;62266;53.348;-1.496;2024-03-08T15:55:15;29.10;;;15.35;;
73919;SDS011;62266;53.348;-1.496;2024-03-08T15:58:03;29.38;;;15.07;;
73919;SDS011;62266;53.348;-1.496;2024-03-08T16:00:49;31.25;;;14.35;;
73919;SDS011;62266;53.348;-1.496;2024-03-08T16:03:35;26.67;;;14.30;;
73919;SDS011;62266;53.348;-1.496;2024-03-08T16:06:19;28.38;;;14.98;;
73919;SDS011;62266;53.348;-1.496;2024-03-08T16:09:08;28.73;;;14.50;;
73919;SDS011;62266;53.348;-1.496;2024-03-08T16:11:59;30.75;;;15.85;;
73919;SDS011;62266;53.348;-1.496;2024-03-08T16:14:42;26.42;;;14.63;;
73919;SDS011;62266;53.348;-1.496;2024-03-08T16:17:26;28.50;;;14.60;;